This is the latest recevied weather packets stored in our database for station/object KY4GW. If no packets are shown the sender has not sent any weather packets the latest 10 day(s).
| Time | Temp. | Humidity | Pressure | Rain* | Wind** | Luminosity | Snow |
|---|---|---|---|---|---|---|---|
| 1777410291 | 25° C | 66% | 1016.6 hPa | 0 mm | - | 332 W/m² | - |
| 1777409986 | 25° C | 66% | 1016.6 hPa | 0 mm | - | 392 W/m² | - |
| 1777408466 | 25° C | 66% | 1016.9 hPa | 0 mm | - | 308 W/m² | - |
| 1777408161 | 25° C | 65% | 1017.3 hPa | 0 mm | - | 523 W/m² | - |
| 1777407554 | 25.56° C | 64% | 1017.3 hPa | 0 mm | - | 264 W/m² | - |
| 1777407253 | 25° C | 63% | 1017.3 hPa | 0 mm | - | 637 W/m² | - |
| 1777406948 | 25° C | 66% | 1017.3 hPa | 0 mm | - | 647 W/m² | - |
| 1777406648 | 25° C | 63% | 1017.3 hPa | 0 mm | - | 680 W/m² | - |
| 1777406043 | 25° C | 65% | 1017.6 hPa | 0 mm | - | 768 W/m² | - |
| 1777404529 | 25° C | 63% | 1017.6 hPa | 0 mm | - | 854 W/m² | - |
| 1777402406 | 23.89° C | 67% | 1016.9 hPa | 0 mm | - | 578 W/m² | - |
| 1777397555 | 22.22° C | 79% | 1018.3 hPa | 0 mm | - | 988 W/m² | - |
| 1777397251 | 22.22° C | 79% | 1018.3 hPa | 0 mm | - | 395 W/m² | - |
| 1777396948 | 21.67° C | 78% | 1018.3 hPa | 0 mm | - | 269 W/m² | - |
| 1777396645 | 21.67° C | 78% | 1018.3 hPa | 0 mm | - | 239 W/m² | - |
| 1777396039 | 21.67° C | 80% | 1018.3 hPa | 0 mm | - | 139 W/m² | - |
| 1777395429 | 22.22° C | 80% | 1018.3 hPa | 0 mm | - | 222 W/m² | - |
| 1777393307 | 20.56° C | 87% | 1018.6 hPa | 0 mm | - | 573 W/m² | - |
| 1777391483 | 19.44° C | 95% | 1018.3 hPa | 0 mm | - | 478 W/m² | - |
| 1777390573 | 18.33° C | 97% | 1018.3 hPa | 0 mm | - | 268 W/m² | - |
| 1777390269 | 18.33° C | 97% | 1018.3 hPa | 0 mm | - | 200 W/m² | - |
| 1777389965 | 18.33° C | 97% | 1018.6 hPa | 0 mm | - | 180 W/m² | - |
| 1777389662 | 18.33° C | 98% | 1018.6 hPa | 0 mm | - | 146 W/m² | - |
| 1777389358 | 17.78° C | 98% | 1018.6 hPa | 0 mm | - | 123 W/m² | - |
| 1777389056 | 17.78° C | 98% | 1018.3 hPa | 0 mm | - | 172 W/m² | - |
* Rain latest hour (hover to see other rain measurements)
** Current wind speed in m/s (hover to see current wind gust speed)